Terminal Aerodrome Forecast
Issued by NWS

Home | Current Version | Previous Version | Graphics & Text | Print | Product List | Glossary On
Versions: 1 2 3 4 5 6 7 8 9 10 11 12 13 14 15
000
FTUS42 KMHX 242335
TAFOAJ
TAF
KOAJ 242335Z 2500/2524 21010G16KT 6SM SHRA VCTS SCT015 BKN040CB
      TEMPO 2500/2502 VRB15G30KT 1SM +TSRA BKN006CB
     FM250200 21006KT 4SM SHRA VCTS SCT025CB OVC040
     FM250600 22006KT 4SM -SHRA VCTS SCT007 OVC020CB
     FM251400 26006KT P6SM VCSH BKN045
     FM251800 26006KT P6SM SCT050
      AMD LTD TO CLD VIS AND WIND=

USA.gov is the U.S. government's official web portal to all federal, state and local government web resources and services.